Time;durP1;ratioP1;P1;durP2;ratioP2;P2;SDS_P1;SDS_P2;PMS_P1;PMS_P2;Temp;Humidity;BMP_temperature;BMP_pressure;BME280_temperature;BME280_humidity;BME280_pressure;Samples;Min_cycle;Max_cycle;Signal;HPM_P1;HPM_P2
2022/04/14 00:02:14;;;;;;;15.30;9.88;;;15.10;99.90;;;13.70;100.00;100949.44;4993312;28;20117;-78
2022/04/14 00:04:45;;;;;;;15.00;9.45;;;15.20;99.90;;;13.65;100.00;100944.59;4993305;28;20129;-78
2022/04/14 00:07:12;;;;;;;13.10;9.20;;;15.10;99.90;;;13.66;100.00;100951.72;4992938;28;20050;-78
2022/04/14 00:09:42;;;;;;;13.32;8.13;;;15.10;99.90;;;13.63;100.00;100951.25;4992927;28;20137;-78
2022/04/14 00:12:10;;;;;;;13.40;8.75;;;15.00;99.90;;;13.63;100.00;100948.53;4993104;28;20046;-78
2022/04/14 00:14:37;;;;;;;15.00;8.57;;;15.00;99.90;;;13.60;100.00;100947.03;4992941;28;20121;-78
2022/04/14 00:17:05;;;;;;;14.05;8.63;;;15.00;99.90;;;13.61;100.00;100951.50;4992691;28;20039;-78
2022/04/14 00:19:33;;;;;;;14.52;9.00;;;15.00;99.90;;;13.57;100.00;100947.41;4992838;28;20129;-78
2022/04/14 00:22:01;;;;;;;13.95;8.88;;;15.00;99.90;;;13.53;100.00;100935.19;4990950;28;20057;-78
2022/04/14 00:24:29;;;;;;;15.73;8.75;;;15.00;99.90;;;13.54;100.00;100936.88;4992824;28;20084;-78
2022/04/14 00:26:56;;;;;;;15.57;9.48;;;14.90;99.90;;;13.52;100.00;100944.44;4992368;28;20070;-78
2022/04/14 00:29:23;;;;;;;13.90;9.38;;;14.90;99.90;;;13.53;100.00;100943.38;4992382;28;20668;-78
2022/04/14 00:31:50;;;;;;;16.75;9.00;;;14.90;99.90;;;13.53;100.00;100943.38;4992444;28;20203;-78
2022/04/14 00:34:18;;;;;;;16.73;9.73;;;14.90;99.90;;;13.50;100.00;100938.31;4992699;28;20043;-78
2022/04/14 00:36:45;;;;;;;13.38;8.85;;;14.90;99.90;;;13.48;100.00;100924.00;4992361;28;20050;-78
2022/04/14 00:39:15;;;;;;;14.45;9.15;;;14.90;99.90;;;13.47;100.00;100922.28;5014905;23;20056;-78
2022/04/14 00:41:42;;;;;;;12.70;8.45;;;14.90;99.90;;;13.46;100.00;100917.84;5010078;28;20054;-78
2022/04/14 00:44:09;;;;;;;12.35;7.97;;;14.90;99.90;;;13.47;100.00;100920.38;5027108;28;20057;-78
2022/04/14 00:46:36;;;;;;;12.70;8.05;;;14.90;99.90;;;13.44;100.00;100914.47;5011456;28;20049;-78
2022/04/14 00:49:04;;;;;;;12.65;8.02;;;14.90;99.90;;;13.41;100.00;100917.59;5003549;28;20046;-78
2022/04/14 00:51:31;;;;;;;13.88;8.32;;;14.90;99.90;;;13.37;100.00;100916.31;4991669;28;20038;-78
2022/04/14 00:53:58;;;;;;;14.07;8.57;;;14.90;99.90;;;13.39;100.00;100916.94;4992160;28;20542;-78
2022/04/14 00:56:27;;;;;;;13.93;8.70;;;14.90;99.90;;;13.39;100.00;100919.69;4991644;28;20129;-78
2022/04/14 00:58:56;;;;;;;14.82;8.10;;;14.90;99.90;;;13.39;100.00;100923.25;4991749;28;20050;-78
2022/04/14 01:01:24;;;;;;;17.70;8.82;;;14.80;99.90;;;13.40;100.00;100929.56;4991718;28;20419;-78
2022/04/14 01:03:54;;;;;;;13.13;8.85;;;14.80;99.90;;;13.36;100.00;100922.78;4991874;28;20521;-78
2022/04/14 01:06:24;;;;;;;16.58;9.40;;;14.80;99.90;;;13.32;100.00;100932.41;4991716;28;20070;-78
2022/04/14 01:11:36;;;;;;;12.55;8.57;;;14.80;99.90;;;13.23;100.00;100931.66;4978449;28;20068;-78
2022/04/14 01:14:07;;;;;;;15.50;8.50;;;14.70;99.90;;;13.27;100.00;100925.63;4991911;28;20038;-78
2022/04/14 01:16:37;;;;;;;14.82;9.75;;;14.80;99.90;;;13.28;100.00;100921.81;4991513;28;20496;-78
2022/04/14 01:19:04;;;;;;;16.13;9.30;;;14.70;99.90;;;13.25;100.00;100916.75;4991576;28;20475;-78
2022/04/14 01:21:33;;;;;;;16.75;9.88;;;14.70;99.90;;;13.28;100.00;100921.00;4991230;28;20145;-78
2022/04/14 01:24:02;;;;;;;16.08;10.13;;;14.70;99.90;;;13.24;100.00;100914.22;4991559;28;20491;-78
2022/04/14 01:26:29;;;;;;;16.25;9.98;;;14.90;99.90;;;13.23;100.00;100912.50;4991127;28;20069;-78
2022/04/14 01:28:57;;;;;;;15.70;9.73;;;14.70;99.90;;;13.25;100.00;100910.44;4991410;28;20070;-78
2022/04/14 01:31:26;;;;;;;15.48;10.05;;;14.70;99.90;;;13.25;100.00;100916.75;4990879;28;20100;-78
2022/04/14 01:33:53;;;;;;;17.60;10.18;;;14.70;99.90;;;13.24;100.00;100920.53;4991317;28;20061;-78
2022/04/14 01:36:20;;;;;;;13.55;9.65;;;14.70;99.90;;;13.28;100.00;100921.00;4990878;28;20109;-78
2022/04/14 01:38:47;;;;;;;15.35;9.55;;;14.70;99.90;;;13.26;100.00;100918.44;4991005;28;20050;-78
2022/04/14 01:41:16;;;;;;;13.90;9.45;;;14.70;99.90;;;13.22;100.00;100922.59;4990833;28;20042;-78
2022/04/14 01:43:44;;;;;;;19.08;10.45;;;14.70;99.90;;;13.17;100.00;100925.06;4991287;28;20050;-78
2022/04/14 01:46:11;;;;;;;17.50;10.35;;;14.70;99.90;;;13.18;100.00;100929.50;4990801;28;20042;-78
2022/04/14 01:48:38;;;;;;;17.58;10.90;;;14.70;99.90;;;13.22;100.00;100932.69;4991111;28;20081;-78
2022/04/14 01:51:06;;;;;;;16.33;10.55;;;14.70;99.90;;;13.20;100.00;100918.38;4990650;28;20506;-78
2022/04/14 01:53:33;;;;;;;17.33;11.23;;;14.60;99.90;;;13.17;100.00;100916.03;4989532;28;20054;-78
2022/04/14 01:56:00;;;;;;;18.17;10.45;;;14.60;99.90;;;13.18;100.00;100913.09;4990647;28;20042;-78
2022/04/14 01:58:29;;;;;;;17.30;10.85;;;14.60;99.90;;;13.21;100.00;100915.47;4990840;28;20125;-78
2022/04/14 02:00:56;;;;;;;16.50;11.35;;;14.60;99.90;;;13.21;100.00;100911.84;4989851;28;20052;-78
2022/04/14 02:03:23;;;;;;;17.02;11.32;;;14.70;99.90;;;13.21;100.00;100912.72;4990781;28;20052;-78
2022/04/14 02:05:51;;;;;;;16.85;11.18;;;14.70;99.90;;;13.20;100.00;100913.75;4990187;28;20120;-78
2022/04/14 02:08:18;;;;;;;17.15;11.10;;;14.60;99.90;;;13.13;100.00;100918.28;4990612;28;20543;-78
2022/04/14 02:10:45;;;;;;;15.93;10.85;;;14.60;99.90;;;13.12;100.00;100922.06;4990236;28;20462;-78
2022/04/14 02:13:12;;;;;;;19.00;11.70;;;14.60;99.90;;;13.14;100.00;100921.88;4990734;28;20050;-78
2022/04/14 02:15:41;;;;;;;18.88;11.60;;;14.60;99.90;;;13.13;100.00;100915.56;4990667;28;20049;-78
2022/04/14 02:18:11;;;;;;;18.25;11.73;;;14.60;99.90;;;13.11;100.00;100920.38;4990178;28;20053;-78
2022/04/14 02:20:41;;;;;;;20.08;11.93;;;14.60;99.90;;;13.09;100.00;100916.97;4988680;28;20146;-78
2022/04/14 02:23:08;;;;;;;18.00;10.85;;;14.60;99.90;;;13.09;100.00;100914.25;4990680;28;20046;-78
2022/04/14 02:25:35;;;;;;;16.73;11.20;;;14.60;99.90;;;13.07;100.00;100910.84;4990600;28;20070;-78
2022/04/14 02:28:02;;;;;;;18.88;12.02;;;14.60;99.90;;;13.07;100.00;100927.25;4990172;28;20153;-78
2022/04/14 02:30:30;;;;;;;18.42;11.93;;;14.50;99.90;;;13.03;100.00;100928.69;4990075;28;20061;-78
2022/04/14 02:32:59;;;;;;;18.48;11.70;;;14.40;99.90;;;12.96;100.00;100925.00;4990331;28;20057;-78
2022/04/14 02:35:30;;;;;;;19.98;11.65;;;14.50;99.90;;;12.93;100.00;100922.66;4990460;28;20088;-78
2022/04/14 02:37:57;;;;;;;20.00;11.27;;;14.50;99.90;;;12.96;100.00;100928.56;4989898;28;20042;-78
2022/04/14 02:40:25;;;;;;;17.02;11.07;;;14.40;99.90;;;12.90;100.00;100915.69;4989799;28;20042;-78
2022/04/14 02:42:57;;;;;;;18.10;11.68;;;14.40;99.90;;;12.90;100.00;100916.53;4990255;28;20484;-78
2022/04/14 02:45:26;;;;;;;18.13;11.38;;;14.40;99.90;;;12.95;100.00;100924.16;4990170;28;20043;-78
2022/04/14 02:47:57;;;;;;;20.27;12.05;;;14.40;99.90;;;12.96;100.00;100911.34;4989855;28;20078;-78
2022/04/14 02:50:26;;;;;;;18.27;12.25;;;14.40;99.90;;;12.96;100.00;100906.72;4989751;28;20404;-78
2022/04/14 02:52:54;;;;;;;21.02;13.10;;;14.40;99.90;;;13.01;100.00;100914.38;4990240;28;20054;-78
2022/04/14 02:55:22;;;;;;;18.75;12.88;;;14.40;99.90;;;12.97;100.00;100921.25;4988780;28;20046;-78
2022/04/14 02:57:50;;;;;;;19.73;12.85;;;14.40;99.90;;;12.95;100.00;100926.91;4989728;28;20069;-78
2022/04/14 03:00:18;;;;;;;21.58;13.65;;;14.40;99.90;;;12.93;100.00;100922.66;4989791;28;20446;-78
2022/04/14 03:02:45;;;;;;;21.10;13.25;;;14.40;99.90;;;12.93;100.00;100915.31;4990184;28;20112;-78
2022/04/14 03:05:12;;;;;;;18.98;12.43;;;14.40;99.90;;;12.91;100.00;100909.19;4990109;28;20398;-78
2022/04/14 03:07:41;;;;;;;18.85;12.45;;;14.40;99.90;;;12.92;100.00;100899.94;4988475;28;20042;-78
2022/04/14 03:10:09;;;;;;;21.25;13.68;;;14.40;99.90;;;12.90;100.00;100902.88;4989586;28;20130;-78
2022/04/14 03:12:46;;;;;;;22.88;12.82;;;14.40;99.90;;;12.88;100.00;100910.41;4991122;28;20052;-78
2022/04/14 03:15:13;;;;;;;23.50;14.85;;;14.40;99.90;;;12.88;100.00;100915.88;4992594;28;20046;-78
2022/04/14 03:17:41;;;;;;;21.83;13.05;;;14.30;99.90;;;12.84;100.00;100914.56;4993460;28;20046;-78
2022/04/14 03:20:10;;;;;;;21.13;13.73;;;14.30;99.90;;;12.84;100.00;100909.09;4993399;28;20498;-78
2022/04/14 03:22:37;;;;;;;22.83;14.73;;;14.30;99.90;;;12.84;100.00;100909.09;4993876;28;20038;-78
2022/04/14 03:25:09;;;;;;;23.67;14.30;;;14.30;99.90;;;12.83;100.00;100901.97;4993564;28;20045;-78
2022/04/14 03:27:37;;;;;;;21.88;13.95;;;14.30;99.90;;;12.80;100.00;100896.88;4993512;28;20053;-78
2022/04/14 03:30:05;;;;;;;20.15;13.48;;;14.30;99.90;;;12.81;100.00;100908.63;4993242;28;20050;-78
2022/04/14 03:32:33;;;;;;;22.42;14.48;;;14.30;99.90;;;12.81;100.00;100914.09;4993689;28;20042;-78
2022/04/14 03:35:04;;;;;;;23.02;14.55;;;14.30;99.90;;;12.81;100.00;100914.09;4993695;28;20134;-78
2022/04/14 03:37:32;;;;;;;22.52;13.35;;;14.30;99.90;;;12.77;100.00;100908.16;4993248;28;20054;-78
2022/04/14 03:39:59;;;;;;;21.17;13.50;;;14.30;99.90;;;12.76;100.00;100909.22;4993035;28;20050;-78
2022/04/14 03:42:28;;;;;;;19.77;13.30;;;14.30;99.90;;;12.71;100.00;100901.56;4992094;28;20058;-78
2022/04/14 03:44:55;;;;;;;19.63;13.05;;;14.30;99.90;;;12.68;100.00;100898.41;4993502;28;20046;-78
2022/04/14 03:47:23;;;;;;;20.95;12.48;;;14.30;99.90;;;12.68;100.00;100898.41;4993027;28;20122;-78
2022/04/14 03:49:51;;;;;;;19.80;13.82;;;14.20;99.90;;;12.66;100.00;100903.16;4992810;28;20047;-78
2022/04/14 03:52:18;;;;;;;20.60;12.57;;;14.20;99.90;;;12.65;100.00;100915.16;4993167;28;20051;-78
2022/04/14 03:54:46;;;;;;;20.63;14.05;;;14.20;99.90;;;12.63;100.00;100911.75;4993222;28;20042;-79
2022/04/14 03:57:13;;;;;;;24.30;15.13;;;14.10;99.90;;;12.61;100.00;100908.38;4992755;28;20046;-78
2022/04/14 03:59:42;;;;;;;19.73;14.10;;;14.20;99.90;;;12.60;100.00;100907.50;4992797;28;20054;-78
2022/04/14 04:02:09;;;;;;;27.02;15.95;;;14.20;99.90;;;12.59;100.00;100894.91;4992998;28;20073;-78
2022/04/14 04:04:36;;;;;;;21.75;14.68;;;14.10;99.90;;;12.59;100.00;100907.72;4993025;28;20495;-78
2022/04/14 04:07:04;;;;;;;23.98;16.23;;;14.10;99.90;;;12.54;100.00;100902.78;4992836;28;20428;-78
2022/04/14 04:09:33;;;;;;;26.95;16.65;;;14.10;99.90;;;12.52;100.00;100904.88;4992966;28;20490;-78
2022/04/14 04:12:00;;;;;;;24.80;16.00;;;14.10;99.90;;;12.51;100.00;100909.50;4992784;28;20054;-78
2022/04/14 04:14:28;;;;;;;26.75;16.35;;;14.10;99.90;;;12.54;100.00;100912.88;4992999;28;20048;-78
2022/04/14 04:16:56;;;;;;;25.83;16.77;;;14.10;99.90;;;12.50;100.00;100899.59;4992478;28;20038;-79
2022/04/14 04:19:24;;;;;;;25.88;15.98;;;14.10;99.90;;;12.47;100.00;100910.91;4992803;28;20499;-78
2022/04/14 04:21:51;;;;;;;24.77;15.50;;;14.10;99.90;;;12.46;100.00;100917.38;4992434;28;20132;-78
2022/04/14 04:24:18;;;;;;;23.17;15.65;;;14.10;99.90;;;12.46;100.00;100925.56;4992034;28;20046;-78
2022/04/14 04:26:45;;;;;;;24.13;16.10;;;14.00;99.90;;;12.48;100.00;100934.44;4992261;28;20046;-78
2022/04/14 04:29:12;;;;;;;24.88;16.13;;;14.10;99.90;;;12.47;100.00;100934.59;4992498;28;20050;-78
2022/04/14 04:31:39;;;;;;;25.13;16.05;;;14.00;99.90;;;12.45;100.00;100943.00;4991656;28;20125;-78
2022/04/14 04:34:08;;;;;;;24.38;16.20;;;14.00;99.90;;;12.44;100.00;100951.38;4991181;28;20390;-78
2022/04/14 04:36:35;;;;;;;24.38;15.82;;;14.00;99.90;;;12.41;100.00;100941.66;4992168;28;20050;-78
2022/04/14 04:39:04;;;;;;;25.20;16.23;;;14.00;99.90;;;12.38;100.00;100947.50;4992267;28;20054;-78
2022/04/14 04:41:31;;;;;;;25.20;16.48;;;13.90;99.90;;;12.37;100.00;100944.97;4992078;28;20486;-78
2022/04/14 04:43:59;;;;;;;26.65;17.00;;;13.90;99.90;;;12.36;100.00;100954.19;4992393;28;20042;-78
2022/04/14 04:46:26;;;;;;;23.27;16.42;;;13.90;99.90;;;12.35;100.00;100947.88;4990475;28;20509;-78
2022/04/14 04:48:54;;;;;;;26.83;17.58;;;13.80;99.90;;;12.32;100.00;100949.09;4992287;28;20066;-78
2022/04/14 04:51:22;;;;;;;26.42;18.15;;;13.90;99.90;;;12.32;100.00;100956.44;4991919;28;20472;-78
2022/04/14 04:53:49;;;;;;;25.73;17.98;;;13.90;99.90;;;12.31;100.00;100962.94;4992266;28;20497;-78
2022/04/14 04:56:18;;;;;;;27.95;17.48;;;13.90;99.90;;;12.30;100.00;100966.69;4991882;28;20582;-78
2022/04/14 04:58:45;;;;;;;24.85;17.73;;;13.90;99.90;;;12.24;100.00;100968.28;4991981;28;20054;-78
2022/04/14 05:01:12;;;;;;;25.63;18.23;;;13.90;99.90;;;12.26;100.00;100965.34;4991597;28;20470;-78
2022/04/14 05:03:40;;;;;;;31.33;20.27;;;13.80;99.90;;;12.26;100.00;100968.94;4991994;28;20047;-78
2022/04/14 05:06:07;;;;;;;28.70;20.45;;;13.80;99.90;;;12.24;100.00;100970.16;4991528;28;20046;-78
2022/04/14 05:08:36;;;;;;;29.05;20.27;;;13.80;99.90;;;12.21;100.00;100968.66;4991678;28;20495;-78
2022/04/14 05:11:03;;;;;;;30.52;21.13;;;13.90;99.90;;;12.25;100.00;100969.13;4991368;28;20048;-78
2022/04/14 05:13:30;;;;;;;33.47;23.40;;;13.90;99.90;;;12.24;100.00;100973.75;4991699;28;20050;-78
2022/04/14 05:15:57;;;;;;;32.92;23.52;;;13.80;99.90;;;12.24;100.00;100979.19;4991470;28;20042;-78
2022/04/14 05:18:24;;;;;;;32.70;22.90;;;13.80;99.90;;;12.27;100.00;100980.69;4991650;28;20117;-79
2022/04/14 05:20:51;;;;;;;33.95;23.13;;;13.80;99.90;;;12.27;100.00;100988.88;4991285;28;20488;-78
2022/04/14 05:23:18;;;;;;;31.67;23.15;;;13.80;99.90;;;12.26;100.00;100988.06;4990338;28;20190;-78
2022/04/14 05:25:47;;;;;;;31.95;22.88;;;13.80;99.90;;;12.24;100.00;100991.97;4991407;28;20125;-78
2022/04/14 05:28:14;;;;;;;34.40;24.10;;;13.80;99.90;;;12.22;100.00;100997.66;4991553;28;20044;-78
2022/04/14 05:30:42;;;;;;;33.08;24.17;;;13.80;99.90;;;12.20;100.00;100998.84;4991098;28;20048;-78
2022/04/14 05:33:10;;;;;;;35.35;23.70;;;13.80;99.90;;;12.20;100.00;100990.66;4991567;28;20044;-78
2022/04/14 05:35:38;;;;;;;38.53;25.15;;;13.80;99.90;;;12.16;100.00;100992.91;4990840;28;20078;-78
2022/04/14 05:38:07;;;;;;;35.80;24.50;;;13.80;99.90;;;12.18;100.00;100992.72;4990529;28;20129;-79
2022/04/14 05:40:35;;;;;;;33.80;24.75;;;13.80;99.90;;;12.22;100.00;100996.78;4990753;28;20038;-78
2022/04/14 05:43:03;;;;;;;34.13;24.98;;;13.80;99.90;;;12.25;100.00;101001.88;4991209;28;20105;-78
2022/04/14 05:45:32;;;;;;;31.20;23.55;;;13.80;99.90;;;12.27;100.00;100999.81;4990983;28;20056;-78
2022/04/14 05:48:01;;;;;;;34.92;23.73;;;13.80;99.90;;;12.30;100.00;100994.00;4990651;28;20046;-78
2022/04/14 05:50:28;;;;;;;33.97;24.35;;;13.80;99.90;;;12.30;100.00;100994.00;4990521;28;20086;-78
2022/04/14 05:52:56;;;;;;;32.65;23.13;;;13.80;99.90;;;12.30;100.00;100999.44;4991506;28;20129;-78
2022/04/14 05:55:23;;;;;;;37.03;24.75;;;13.80;99.90;;;12.33;100.00;101007.25;4991075;28;20050;-78
2022/04/14 05:57:51;;;;;;;34.58;23.80;;;13.80;99.90;;;12.34;100.00;101006.22;4990613;28;20134;-78
2022/04/14 06:00:20;;;;;;;36.63;24.83;;;13.80;99.90;;;12.34;100.00;101014.41;4990474;28;20086;-78
2022/04/14 06:02:47;;;;;;;37.33;25.23;;;13.90;99.90;;;12.35;100.00;101016.09;4991019;28;20053;-78
2022/04/14 06:05:14;;;;;;;39.20;25.73;;;13.90;99.90;;;12.37;100.00;101011.31;4990943;28;20074;-78
2022/04/14 06:07:41;;;;;;;35.55;23.85;;;13.90;99.90;;;12.38;100.00;101018.47;4990288;28;20049;-78
2022/04/14 06:10:09;;;;;;;37.58;25.13;;;13.90;99.90;;;12.36;100.00;101017.81;4990358;28;20054;-78
2022/04/14 06:12:36;;;;;;;39.10;25.38;;;13.90;99.90;;;12.33;100.00;101016.28;4990783;28;20069;-78
2022/04/14 06:15:04;;;;;;;41.03;25.10;;;13.90;99.90;;;12.35;100.00;101013.38;4990674;28;20191;-78
2022/04/14 06:17:33;;;;;;;40.75;25.52;;;14.00;99.90;;;12.38;100.00;101023.09;4990240;28;20049;-78
2022/04/14 06:20:01;;;;;;;42.20;26.30;;;14.00;99.90;;;12.42;100.00;101019.81;4989967;28;20499;-78
2022/04/14 06:22:28;;;;;;;41.63;26.10;;;14.00;99.90;;;12.44;100.00;101017.72;4988956;28;20054;-78
2022/04/14 06:24:58;;;;;;;38.95;25.95;;;14.00;99.90;;;12.46;100.00;101020.28;4989257;28;20157;-78
2022/04/14 06:27:26;;;;;;;39.08;25.52;;;14.00;99.90;;;12.45;100.00;101008.53;4990056;28;20039;-78
2022/04/14 06:29:53;;;;;;;40.97;26.52;;;14.00;99.90;;;12.47;100.00;101011.03;4990047;28;20042;-78
2022/04/14 06:32:20;;;;;;;41.83;26.38;;;14.00;99.90;;;12.52;100.00;101014.06;4990398;28;20074;-78
2022/04/14 06:34:48;;;;;;;40.05;26.73;;;14.10;99.90;;;12.60;100.00;101015.88;4990538;28;20050;-78
2022/04/14 06:37:16;;;;;;;44.70;26.48;;;14.10;99.90;;;12.65;100.00;101008.00;4990206;28;20439;-78
2022/04/14 06:39:43;;;;;;;39.72;26.27;;;14.10;99.90;;;12.67;100.00;101011.38;5013780;23;20053;-77
2022/04/14 06:42:10;;;;;;;43.78;26.73;;;14.10;99.90;;;12.69;100.00;101009.31;5009969;28;20046;-77
2022/04/14 06:44:37;;;;;;;39.75;25.50;;;14.10;99.90;;;12.76;100.00;101015.72;5010170;28;20080;-77
2022/04/14 06:47:05;;;;;;;47.15;27.83;;;14.20;99.90;;;12.79;100.00;101012.59;5009290;28;20038;-77
2022/04/14 06:49:33;;;;;;;42.15;26.90;;;14.30;99.90;;;12.86;100.00;101019.03;5001120;28;20046;-77
2022/04/14 06:52:02;;;;;;;47.35;28.75;;;14.30;99.90;;;12.95;100.00;101014.31;4990069;28;20070;-77
2022/04/14 06:54:30;;;;;;;44.25;26.95;;;14.40;99.90;;;13.02;100.00;101014.41;4990547;28;20042;-77
2022/04/14 06:56:57;;;;;;;46.78;28.88;;;14.40;99.90;;;13.07;100.00;101021.00;4989836;28;20059;-77
2022/04/14 06:59:24;;;;;;;43.60;27.85;;;14.40;99.90;;;13.10;100.00;101028.84;4990137;28;20050;-78
2022/04/14 07:01:51;;;;;;;48.67;28.92;;;14.50;99.90;;;13.14;100.00;101028.47;4988534;28;20400;-77
2022/04/14 07:04:18;;;;;;;48.13;29.60;;;14.50;99.90;;;13.14;100.00;101026.56;4990198;28;20050;-77
2022/04/14 07:06:46;;;;;;;52.33;31.17;;;14.60;99.90;;;13.15;100.00;101027.41;4990158;28;20038;-78
2022/04/14 07:09:17;;;;;;;50.05;31.20;;;14.60;99.90;;;13.15;100.00;101024.69;4988847;28;20058;-77
2022/04/14 07:11:47;;;;;;;50.70;31.00;;;14.60;99.90;;;13.18;100.00;101025.16;4989876;28;20078;-77
2022/04/14 07:14:15;;;;;;;58.63;33.38;;;14.70;99.90;;;13.21;100.00;101019.31;4990219;28;20054;-77
2022/04/14 07:16:42;;;;;;;51.47;31.83;;;14.70;99.90;;;13.27;100.00;101028.66;4989893;28;20042;-77
2022/04/14 07:19:12;;;;;;;50.45;32.05;;;14.70;99.90;;;13.36;100.00;101032.16;4990352;28;20137;-77
2022/04/14 07:21:39;;;;;;;55.88;33.13;;;14.70;99.90;;;13.42;100.00;101034.97;4989902;28;20042;-77
2022/04/14 07:24:07;;;;;;;56.30;32.50;;;14.70;99.90;;;13.45;100.00;101033.75;4990082;28;20072;-77
2022/04/14 07:26:36;;;;;;;55.25;32.65;;;14.80;99.90;;;13.48;100.00;101031.47;4989443;28;20133;-77
2022/04/14 07:29:04;;;;;;;54.80;33.22;;;14.80;99.90;;;13.52;100.00;101031.06;4990040;28;20046;-77
2022/04/14 07:31:31;;;;;;;55.67;33.58;;;14.90;99.90;;;13.50;100.00;101028.56;4989437;28;20125;-77
2022/04/14 07:33:58;;;;;;;56.60;33.38;;;14.80;99.90;;;13.54;100.00;101029.88;4990110;28;20047;-77
2022/04/14 07:36:26;;;;;;;56.72;32.05;;;14.90;99.90;;;13.51;100.00;101027.50;4989681;28;20403;-78
2022/04/14 07:38:53;;;;;;;57.78;33.80;;;14.90;99.90;;;13.55;100.00;101039.75;4989855;28;20073;-78
2022/04/14 07:41:21;;;;;;;57.50;32.92;;;14.90;99.90;;;13.57;100.00;101045.88;4988067;28;20042;-77
2022/04/14 07:43:49;;;;;;;54.97;33.53;;;14.90;99.90;;;13.63;100.00;101044.25;4990352;28;20577;-77
2022/04/14 07:46:16;;;;;;;58.85;35.88;;;14.90;99.90;;;13.74;100.00;101040.19;4989435;28;20145;-77
2022/04/14 07:48:44;;;;;;;59.45;35.10;;;15.00;99.90;;;13.91;100.00;101041.63;5004920;28;20054;-78
2022/04/14 07:51:11;;;;;;;63.05;37.63;;;15.00;99.90;;;14.11;100.00;101041.00;4989615;28;20516;-77
2022/04/14 07:53:38;;;;;;;61.95;37.13;;;15.20;99.90;;;14.28;100.00;101036.97;4989917;28;20070;-77
2022/04/14 07:56:06;;;;;;;64.03;37.05;;;15.30;99.90;;;14.45;100.00;101034.81;4989533;28;20054;-77
2022/04/14 07:58:33;;;;;;;72.53;40.25;;;15.40;99.90;;;14.59;100.00;101039.38;4989807;28;20039;-77
2022/04/14 08:01:01;;;;;;;64.68;39.63;;;15.50;99.90;;;14.73;100.00;101040.31;4992450;28;20050;-77
2022/04/14 08:03:29;;;;;;;63.90;38.65;;;15.60;99.90;;;14.88;100.00;101039.38;4993327;28;20117;-77
2022/04/14 08:05:56;;;;;;;73.53;42.60;;;15.70;99.90;;;15.00;100.00;101041.38;4992858;28;20042;-77
2022/04/14 08:08:24;;;;;;;72.50;41.75;;;15.80;99.90;;;15.12;100.00;101043.56;4993034;28;20121;-76
2022/04/14 08:10:52;;;;;;;72.93;39.70;;;15.90;99.90;;;15.18;100.00;101031.78;4992766;28;20097;-77
2022/04/14 08:13:20;;;;;;;75.43;41.58;;;16.00;99.90;;;15.30;100.00;101037.53;4993177;28;20605;-76
2022/04/14 08:15:47;;;;;;;73.07;41.75;;;16.10;99.90;;;15.36;100.00;101033.97;4992895;28;20416;-77
2022/04/14 08:18:29;;;;;;;76.25;44.45;;;16.10;99.90;;;15.44;100.00;101034.66;4993264;28;20038;-78
2022/04/14 08:20:58;;;;;;;72.00;41.97;;;16.20;99.90;;;15.55;100.00;101038.69;4992741;28;20064;-78
2022/04/14 08:23:25;;;;;;;74.00;42.75;;;16.30;99.90;;;15.60;100.00;101038.94;4993081;28;20056;-78
2022/04/14 08:25:53;;;;;;;76.05;44.55;;;16.30;99.90;;;15.70;100.00;101034.97;4992745;28;20573;-78
2022/04/14 08:28:20;;;;;;;76.45;42.85;;;16.40;99.90;;;15.76;100.00;101031.41;4992929;28;20046;-78
2022/04/14 08:30:47;;;;;;;68.78;41.35;;;16.40;99.90;;;15.81;100.00;101031.66;4992480;28;20061;-77
2022/04/14 08:33:20;;;;;;;74.63;44.78;;;16.50;99.90;;;15.91;100.00;101026.59;4991282;28;20061;-78
2022/04/14 08:35:49;;;;;;;76.55;44.10;;;16.60;99.90;;;15.91;100.00;101047.72;4992379;28;20474;-78
2022/04/14 08:38:17;;;;;;;73.13;44.08;;;16.70;99.90;;;15.85;100.00;101043.91;4992641;28;20042;-78
2022/04/14 08:40:49;;;;;;;71.30;41.72;;;16.70;99.90;;;15.88;100.00;101037.16;4991987;28;20105;-78
2022/04/14 08:43:25;;;;;;;83.60;46.35;;;16.70;99.90;;;15.86;100.00;101042.88;4991395;28;20089;-78
2022/04/14 08:45:53;;;;;;;72.57;44.08;;;16.70;99.90;;;15.92;100.00;101042.03;4992174;28;20054;-77
2022/04/14 08:48:24;;;;;;;72.20;45.45;;;16.70;99.90;;;16.05;100.00;101043.09;4992534;28;20498;-78
2022/04/14 08:50:51;;;;;;;74.03;46.53;;;16.70;99.90;;;16.13;100.00;101048.44;4992073;28;20392;-78
2022/04/14 08:53:19;;;;;;;67.35;43.85;;;16.80;99.90;;;16.09;100.00;101037.00;4992573;28;20503;-78
2022/04/14 08:55:47;;;;;;;69.82;45.75;;;16.80;99.90;;;16.17;100.00;101039.53;4992201;28;20476;-78
2022/04/14 08:58:17;;;;;;;73.05;45.60;;;16.80;99.90;;;16.25;100.00;101052.22;4992238;28;20042;-78
2022/04/14 09:00:44;;;;;;;69.63;44.45;;;16.90;99.90;;;16.31;100.00;101048.63;4991753;28;20185;-78
2022/04/14 09:03:14;;;;;;;68.00;43.58;;;17.00;99.90;;;16.21;100.00;101042.72;4992351;28;20553;-78
2022/04/14 09:05:43;;;;;;;66.00;42.65;;;17.00;99.90;;;16.17;100.00;101038.72;4992267;28;20108;-78
2022/04/14 09:08:10;;;;;;;65.15;43.55;;;17.00;99.90;;;16.26;100.00;101036.59;4991437;28;20831;-78
2022/04/14 09:10:38;;;;;;;64.85;42.85;;;17.00;99.90;;;16.36;100.00;101032.38;4991613;28;20054;-78
2022/04/14 09:13:05;;;;;;;65.85;40.92;;;17.10;99.90;;;16.46;100.00;101028.38;4991927;28;20053;-78
2022/04/14 09:15:33;;;;;;;58.58;38.60;;;17.20;99.90;;;16.51;100.00;101021.19;4991980;28;20066;-78
2022/04/14 09:18:00;;;;;;;55.60;37.38;;;17.30;99.90;;;16.58;100.00;101032.16;4991555;28;20041;-78
2022/04/14 09:20:36;;;;;;;54.08;37.25;;;17.40;99.90;;;16.71;100.00;101034.91;4991392;28;20042;-78
2022/04/14 09:23:21;;;;;;;55.90;37.72;;;17.40;99.90;;;16.83;100.00;101028.81;4991759;28;20097;-78
2022/04/14 09:25:51;;;;;;;58.53;40.17;;;17.50;99.90;;;16.90;100.00;101030.47;4991412;28;20050;-78
2022/04/14 09:28:22;;;;;;;62.95;42.08;;;17.60;99.90;;;16.97;100.00;101031.31;4991797;28;20466;-78
2022/04/14 09:31:07;;;;;;;;;;;17.60;99.90;;;17.02;100.00;101027.94;4991792;28;20049;-78
2022/04/14 09:33:37;;;;;;;53.15;37.13;;;17.80;99.90;;;17.00;100.00;101032.78;4989975;28;19925;-78
2022/04/14 09:36:07;;;;;;;60.70;37.55;;;17.80;99.90;;;17.06;100.00;101029.22;4991372;28;20050;-78
2022/04/14 09:41:37;;;;;;;52.50;37.95;;;17.90;99.90;;;17.26;98.89;101023.63;5107182;27;20380;-77
2022/04/14 09:44:08;;;;;;;51.92;36.78;;;18.00;99.90;;;17.28;97.45;101020.66;5087218;28;20070;-77
2022/04/14 09:46:36;;;;;;;55.33;40.00;;;18.10;99.90;;;17.28;96.34;101017.91;5086902;28;20098;-77
2022/04/14 09:49:09;;;;;;;54.10;37.40;;;18.10;99.90;;;17.20;95.78;101025.34;5086938;28;20496;-77
2022/04/14 09:51:38;;;;;;;54.78;37.95;;;18.10;99.90;;;17.07;95.20;101030.88;5086776;28;20083;-77
2022/04/14 09:54:15;;;;;;;57.15;39.38;;;18.00;99.90;;;17.07;95.28;101024.53;5087097;28;20048;-77
2022/04/14 09:56:46;;;;;;;55.20;39.38;;;17.90;99.90;;;17.10;95.63;101013.13;5086672;28;20098;-77
2022/04/14 09:59:17;;;;;;;58.47;41.40;;;17.90;99.90;;;17.12;94.48;101017.34;5086872;28;20052;-77
2022/04/14 10:01:45;;;;;;;53.83;37.63;;;18.00;99.90;;;17.19;93.68;101007.16;5086617;28;20127;-77
2022/04/14 10:04:33;;;;;;;62.03;39.55;;;18.00;99.90;;;17.36;94.88;101013.03;5086996;28;20044;-77
2022/04/14 10:07:10;;;;;;;55.35;38.45;;;18.10;99.90;;;17.46;93.20;101006.19;5086447;28;20072;-77